Time;durP1;ratioP1;P1;durP2;ratioP2;P2;SDS_P1;SDS_P2;PMS_P1;PMS_P2;Temp;Humidity;BMP_temperature;BMP_pressure;BME280_temperature;BME280_humidity;BME280_pressure;Samples;Min_cycle;Max_cycle;Signal;HPM_P1;HPM_P2
2023/12/30 00:00:05;;;;;;;7.20;4.28;;;;;;;6.72;100.00;94728.22;5095818;28;20027;-85
2023/12/30 00:02:30;;;;;;;6.57;4.20;;;;;;;6.98;100.00;94718.22;5079065;28;20127;-85
2023/12/30 00:04:56;;;;;;;12.05;5.13;;;;;;;6.90;100.00;94722.03;5095704;28;20032;-85
2023/12/30 00:07:21;;;;;;;7.72;4.20;;;;;;;6.88;100.00;94724.03;5095729;28;20024;-85
2023/12/30 00:09:46;;;;;;;8.93;4.55;;;;;;;6.95;100.00;94720.50;5095598;28;20028;-85
2023/12/30 00:12:12;;;;;;;8.95;4.35;;;;;;;7.08;100.00;94715.00;5095608;28;20028;-85
2023/12/30 00:14:37;;;;;;;10.05;6.15;;;;;;;7.17;100.00;94726.63;5096763;28;20353;-85
2023/12/30 00:17:03;;;;;;;11.18;6.60;;;;;;;7.16;100.00;94719.03;5078774;28;20417;-85
2023/12/30 00:19:29;;;;;;;10.23;6.22;;;;;;;6.92;100.00;94716.56;5095617;28;20081;-85
2023/12/30 00:21:54;;;;;;;12.68;6.93;;;;;;;6.97;100.00;94711.44;5078973;28;20429;-85
2023/12/30 00:24:20;;;;;;;13.07;7.75;;;;;;;7.06;100.00;94710.00;5096705;28;20024;-85
2023/12/30 00:26:45;;;;;;;11.02;5.22;;;;;;;6.96;100.00;94711.66;5095255;28;20028;-85
2023/12/30 00:29:12;;;;;;;8.98;4.53;;;;;;;6.92;100.00;94711.34;5095433;28;20028;-85
2023/12/30 00:31:37;;;;;;;16.85;7.18;;;;;;;6.91;100.00;94712.38;5095361;28;20059;-85
2023/12/30 00:34:02;;;;;;;11.02;6.32;;;;;;;7.00;100.00;94713.56;5095474;28;20515;-85
2023/12/30 00:36:28;;;;;;;11.48;6.43;;;;;;;7.08;100.00;94715.78;5095422;28;20457;-85
2023/12/30 00:38:54;;;;;;;15.00;7.97;;;;;;;7.12;100.00;94720.53;5078670;28;20028;-84
2023/12/30 00:41:23;;;;;;;14.23;6.85;;;;;;;6.99;100.00;94719.81;5078463;28;20047;-85
2023/12/30 00:43:49;;;;;;;28.60;13.73;;;;;;;6.90;100.00;94724.63;5090900;28;20032;-85
2023/12/30 00:46:14;;;;;;;31.38;16.20;;;;;;;6.60;100.00;94727.47;5095175;28;20089;-85
2023/12/30 00:48:40;;;;;;;29.90;15.77;;;;;;;6.35;100.00;94720.75;5095177;28;20107;-84
2023/12/30 00:51:05;;;;;;;23.85;11.77;;;;;;;6.11;100.00;94720.84;5078354;28;20062;-85
2023/12/30 00:53:31;;;;;;;20.67;10.25;;;;;;;6.24;100.00;94722.38;5081692;28;20028;-85
2023/12/30 00:55:57;;;;;;;20.25;11.10;;;;;;;6.43;100.00;94720.41;5082535;28;20039;-85
2023/12/30 00:58:23;;;;;;;19.58;11.65;;;;;;;5.98;100.00;94711.44;5099086;28;20028;-85
2023/12/30 01:00:50;;;;;;;19.17;10.55;;;;;;;6.16;100.00;94728.72;5082347;28;20035;-85
2023/12/30 01:03:15;;;;;;;18.75;9.57;;;;;;;6.41;100.00;94719.84;5099027;28;20035;-84
2023/12/30 01:05:41;;;;;;;18.25;9.73;;;;;;;6.29;100.00;94722.47;5082337;28;20421;-85
2023/12/30 01:08:07;;;;;;;17.45;9.75;;;;;;;6.35;100.00;94718.97;5098845;28;20063;-85
2023/12/30 01:10:32;;;;;;;25.80;13.63;;;;;;;6.53;100.00;94719.78;5098914;28;20028;-85
2023/12/30 01:12:57;;;;;;;25.48;13.70;;;;;;;6.62;100.00;94725.41;5098831;28;20027;-85
2023/12/30 01:15:23;;;;;;;36.53;16.65;;;;;;;6.32;100.00;94719.44;5099967;28;20487;-84
2023/12/30 01:17:48;;;;;;;31.45;15.77;;;;;;;6.46;100.00;94719.16;5099891;28;20032;-84
2023/12/30 01:20:14;;;;;;;22.63;12.05;;;;;;;6.45;100.00;94714.94;5098737;28;20038;-85
2023/12/30 01:22:39;;;;;;;25.10;12.57;;;;;;;6.53;100.00;94722.41;5082014;28;20425;-84
2023/12/30 01:25:05;;;;;;;34.17;16.70;;;;;;;6.55;100.00;94725.56;5098625;28;20032;-85
2023/12/30 01:27:31;;;;;;;36.90;17.30;;;;;;;6.56;100.00;94729.75;5098561;28;20031;-84
2023/12/30 01:29:56;;;;;;;29.15;14.52;;;;;;;6.51;100.00;94724.44;5098625;28;20038;-85
2023/12/30 01:32:22;;;;;;;25.30;13.38;;;;;;;6.47;100.00;94731.16;5098578;28;20074;-84
2023/12/30 01:34:47;;;;;;;31.10;15.55;;;;;;;6.42;100.00;94731.03;5098537;28;20444;-84
2023/12/30 01:37:13;;;;;;;30.77;16.40;;;;;;;6.50;100.00;94736.66;5098125;28;20038;-84
2023/12/30 01:39:38;;;;;;;40.20;19.10;;;;;;;6.51;100.00;94734.84;5081413;28;20441;-85
2023/12/30 01:42:04;;;;;;;33.10;15.68;;;;;;;6.12;100.00;94727.63;5098417;28;20376;-85
2023/12/30 01:44:29;;;;;;;25.42;13.65;;;;;;;6.20;100.00;94731.66;5098041;28;20040;-85
2023/12/30 01:46:55;;;;;;;24.13;13.20;;;;;;;6.44;100.00;94728.97;5098098;28;20055;-85
2023/12/30 01:49:20;;;;;;;33.20;16.98;;;;;;;6.46;100.00;94732.94;5098143;28;20028;-85
2023/12/30 01:51:47;;;;;;;39.65;20.17;;;;;;;6.47;100.00;94733.75;5098140;28;20035;-84
2023/12/30 01:54:14;;;;;;;41.78;22.05;;;;;;;6.38;100.00;94730.69;5098167;28;20038;-85
2023/12/30 01:56:40;;;;;;;52.25;25.73;;;;;;;6.40;100.00;94728.69;5097953;28;20106;-84
2023/12/30 01:59:05;;;;;;;53.85;27.58;;;;;;;6.34;100.00;94730.38;5063088;28;20086;-85
2023/12/30 02:01:31;;;;;;;44.15;20.92;;;;;;;6.43;100.00;94735.22;5077696;28;20034;-85
2023/12/30 02:03:56;;;;;;;42.53;22.02;;;;;;;6.50;100.00;94728.06;5059872;28;20039;-85
2023/12/30 02:06:22;;;;;;;45.95;23.17;;;;;;;6.32;100.00;94732.44;5061114;28;20123;-85
2023/12/30 02:08:47;;;;;;;56.15;28.67;;;;;;;6.35;100.00;94726.75;5077443;28;20433;-84
2023/12/30 02:11:14;;;;;;;61.95;29.23;;;;;;;6.39;100.00;94736.72;5061052;28;20029;-84
2023/12/30 02:13:43;;;;;;;67.13;31.65;;;;;;;6.36;100.00;94737.94;5061030;28;20036;-85
2023/12/30 02:16:08;;;;;;;69.00;33.85;;;;;;;6.04;100.00;94736.56;5061159;28;20076;-84
2023/12/30 02:18:33;;;;;;;71.30;35.15;;;;;;;5.92;100.00;94733.94;5060513;28;20469;-85
2023/12/30 02:20:59;;;;;;;67.10;34.20;;;;;;;6.01;100.00;94731.81;5077459;28;20028;-84
2023/12/30 02:23:24;;;;;;;58.58;30.38;;;;;;;5.99;100.00;94739.03;5082115;28;20073;-84
2023/12/30 02:25:50;;;;;;;65.03;30.90;;;;;;;5.72;100.00;94738.72;5097515;28;20107;-84
2023/12/30 02:28:16;;;;;;;65.00;32.70;;;;;;;5.75;100.00;94725.25;5097368;28;20051;-84
2023/12/30 02:30:42;;;;;;;83.30;36.15;;;;;;;5.31;100.00;94723.00;5097333;28;20028;-84
2023/12/30 02:33:07;;;;;;;80.10;38.70;;;;;;;5.00;100.00;94715.28;5092588;28;20027;-85
2023/12/30 02:35:32;;;;;;;70.63;33.55;;;;;;;5.23;100.00;94705.91;5086012;28;20039;-85
2023/12/30 02:37:58;;;;;;;87.20;38.08;;;;;;;5.01;100.00;94710.88;5082421;28;20032;-85
2023/12/30 02:40:24;;;;;;;80.40;37.08;;;;;;;5.38;100.00;94708.09;5068292;28;20027;-85
2023/12/30 02:42:49;;;;;;;69.07;33.05;;;;;;;5.49;100.00;94709.09;5087625;28;20111;-84
2023/12/30 02:45:15;;;;;;;66.93;33.42;;;;;;;5.30;100.00;94701.41;5085983;28;20338;-84
2023/12/30 02:47:40;;;;;;;72.65;34.08;;;;;;;5.28;100.00;94695.66;5069395;28;20409;-85
2023/12/30 02:50:07;;;;;;;74.32;36.70;;;;;;;5.37;100.00;94698.72;5087426;28;20050;-85
2023/12/30 02:52:32;;;;;;;72.72;35.38;;;;;;;5.65;100.00;94694.63;5087429;28;20020;-85
2023/12/30 02:54:59;;;;;;;64.93;32.38;;;;;;;5.76;100.00;94691.25;5070008;28;20342;-85
2023/12/30 02:57:25;;;;;;;68.82;33.28;;;;;;;5.61;100.00;94691.69;5085745;28;20323;-85
2023/12/30 02:59:51;;;;;;;67.65;33.08;;;;;;;5.54;100.00;94685.03;5070736;28;20153;-85
2023/12/30 03:02:16;;;;;;;62.70;31.63;;;;;;;5.68;100.00;94683.78;5085845;28;20099;-85
2023/12/30 03:04:41;;;;;;;76.40;37.35;;;;;;;5.27;100.00;94682.88;5085856;28;20024;-85
2023/12/30 03:07:07;;;;;;;69.65;33.15;;;;;;;5.18;100.00;94683.25;5087069;28;20031;-85
2023/12/30 03:09:33;;;;;;;74.90;32.25;;;;;;;5.38;100.00;94682.09;5085229;28;20024;-85
2023/12/30 03:11:58;;;;;;;67.78;32.35;;;;;;;5.63;100.00;94678.47;5088938;28;20030;-85
2023/12/30 03:14:23;;;;;;;69.65;33.45;;;;;;;5.54;100.00;94680.66;5085209;28;20114;-85
2023/12/30 03:16:49;;;;;;;61.55;30.73;;;;;;;5.74;100.00;94684.69;5086444;28;20032;-85
2023/12/30 03:19:14;;;;;;;66.95;33.75;;;;;;;5.47;100.00;94683.34;5086388;28;20078;-84
2023/12/30 03:21:40;;;;;;;67.78;33.33;;;;;;;5.70;100.00;94686.16;5085808;28;20474;-85
2023/12/30 03:24:06;;;;;;;64.60;30.92;;;;;;;5.78;100.00;94681.41;5070418;28;20067;-84
2023/12/30 03:26:31;;;;;;;58.63;30.48;;;;;;;5.70;100.00;94683.56;5069972;28;20062;-85
2023/12/30 03:28:57;;;;;;;61.25;30.50;;;;;;;5.88;100.00;94680.81;5068408;28;20024;-84
2023/12/30 03:31:27;;;;;;;61.33;30.38;;;;;;;5.86;100.00;94682.84;5086466;28;20341;-84
2023/12/30 03:33:53;;;;;;;61.40;30.73;;;;;;;6.04;100.00;94679.34;5087595;28;20039;-84
2023/12/30 03:36:18;;;;;;;61.75;30.17;;;;;;;6.10;100.00;94676.84;5069120;28;20027;-84
2023/12/30 03:38:44;;;;;;;58.60;30.90;;;;;;;6.23;100.00;94679.16;5085942;28;20029;-84
2023/12/30 03:41:09;;;;;;;64.93;30.65;;;;;;;6.29;100.00;94675.63;5084391;28;20029;-84
2023/12/30 03:43:35;;;;;;;59.40;30.40;;;;;;;6.32;100.00;94669.97;5086074;28;20028;-84
2023/12/30 03:46:00;;;;;;;47.92;25.33;;;;;;;6.25;100.00;94677.13;5085572;28;20025;-84
2023/12/30 03:48:26;;;;;;;41.75;19.83;;;;;;;6.32;100.00;94674.38;5084290;28;20035;-84
2023/12/30 03:50:51;;;;;;;57.25;27.40;;;;;;;6.33;100.00;94678.56;5069584;28;20043;-84
2023/12/30 03:53:16;;;;;;;57.00;27.42;;;;;;;6.43;100.00;94668.34;5086096;28;20383;-84
2023/12/30 03:55:42;;;;;;;49.08;22.30;;;;;;;6.26;100.00;94668.28;5084896;28;20028;-85
2023/12/30 03:58:07;;;;;;;62.60;30.60;;;;;;;6.38;100.00;94675.28;5087401;28;20035;-84
2023/12/30 04:00:33;;;;;;;70.78;34.75;;;;;;;5.95;100.00;94675.47;5084222;28;20024;-85
2023/12/30 04:02:58;;;;;;;58.63;30.25;;;;;;;5.60;100.00;94671.91;5086158;28;20042;-85
2023/12/30 04:05:24;;;;;;;62.08;30.90;;;;;;;5.90;100.00;94675.41;5085583;28;20426;-85
2023/12/30 04:07:50;;;;;;;65.05;31.95;;;;;;;6.08;100.00;94674.44;5084887;28;21097;-84
2023/12/30 04:10:17;;;;;;;63.88;31.95;;;;;;;6.06;100.00;94677.31;5075197;28;20063;-85
2023/12/30 04:12:43;;;;;;;64.60;31.67;;;;;;;6.14;100.00;94681.34;5079226;28;20024;-85
2023/12/30 04:15:09;;;;;;;71.78;34.78;;;;;;;6.14;100.00;94683.16;5094500;28;20036;-85
2023/12/30 04:17:34;;;;;;;70.45;34.83;;;;;;;5.94;100.00;94684.31;5078776;28;20492;-85
2023/12/30 04:20:00;;;;;;;63.10;30.67;;;;;;;5.94;100.00;94685.09;5095548;28;20032;-85
2023/12/30 04:22:27;;;;;;;72.78;34.35;;;;;;;6.02;100.00;94685.78;5094618;28;20058;-85
2023/12/30 04:24:53;;;;;;;65.82;32.55;;;;;;;6.04;100.00;94674.16;5088382;28;20035;-85
2023/12/30 04:27:18;;;;;;;62.47;30.83;;;;;;;6.00;100.00;94674.78;5096528;28;20433;-85
2023/12/30 04:29:43;;;;;;;72.65;35.72;;;;;;;5.72;100.00;94679.69;5099763;28;20433;-85
2023/12/30 04:32:09;;;;;;;64.05;32.15;;;;;;;5.72;100.00;94684.91;5091451;28;20043;-84
2023/12/30 04:34:35;;;;;;;75.68;33.85;;;;;;;5.58;100.00;94679.16;5062791;28;20456;-85
2023/12/30 04:37:01;;;;;;;67.18;31.80;;;;;;;5.42;100.00;94679.84;5079179;28;20040;-85
2023/12/30 04:39:26;;;;;;;64.95;30.75;;;;;;;5.39;100.00;94683.69;5079304;28;20349;-85
2023/12/30 04:41:52;;;;;;;55.38;27.77;;;;;;;5.45;100.00;94682.78;5086544;28;20042;-85
2023/12/30 04:44:17;;;;;;;50.58;25.98;;;;;;;5.84;100.00;94684.91;5099204;28;20352;-84
2023/12/30 04:46:43;;;;;;;61.35;29.73;;;;;;;5.86;100.00;94689.84;5099277;28;20318;-85
2023/12/30 04:49:10;;;;;;;59.42;27.38;;;;;;;5.99;100.00;94687.00;5098820;28;20051;-85
2023/12/30 04:51:36;;;;;;;51.47;25.40;;;;;;;6.08;100.00;94687.47;5100439;28;20052;-85
2023/12/30 04:54:02;;;;;;;46.67;21.70;;;;;;;6.21;100.00;94686.41;5099345;28;20058;-85
2023/12/30 04:56:27;;;;;;;42.08;19.73;;;;;;;6.33;100.00;94687.19;5082208;28;20077;-85
2023/12/30 04:58:52;;;;;;;41.40;20.63;;;;;;;6.47;100.00;94687.66;5090202;28;20032;-85
2023/12/30 05:01:18;;;;;;;42.00;21.08;;;;;;;6.43;100.00;94683.16;5099001;28;20028;-84
2023/12/30 05:03:44;;;;;;;39.03;20.25;;;;;;;6.49;100.00;94683.03;5099085;28;20028;-84
2023/12/30 05:06:21;;;;;;;38.10;18.83;;;;;;;6.26;100.00;94686.50;5099260;28;20024;-84
2023/12/30 05:08:47;;;;;;;35.17;17.17;;;;;;;6.27;100.00;94690.69;5081867;28;20036;-84
2023/12/30 05:11:13;;;;;;;33.00;16.60;;;;;;;6.50;100.00;94694.22;5099025;28;20449;-84
2023/12/30 05:13:38;;;;;;;34.30;17.20;;;;;;;6.42;100.00;94684.19;5098866;28;20035;-84
2023/12/30 05:16:04;;;;;;;30.83;17.25;;;;;;;6.63;100.00;94690.53;5066442;28;20037;-84
2023/12/30 05:18:30;;;;;;;29.33;16.20;;;;;;;6.63;100.00;94696.56;5061637;28;20048;-84
2023/12/30 05:20:55;;;;;;;36.97;19.35;;;;;;;6.70;100.00;94696.41;5078555;28;20036;-84
2023/12/30 05:23:21;;;;;;;37.38;19.70;;;;;;;6.62;100.00;94705.38;5078467;28;20036;-84
2023/12/30 05:25:46;;;;;;;35.20;17.90;;;;;;;6.59;100.00;94703.22;5078591;28;20024;-84
2023/12/30 05:28:11;;;;;;;31.25;16.80;;;;;;;6.25;100.00;94699.75;5078166;28;20032;-84
2023/12/30 05:30:37;;;;;;;31.50;15.27;;;;;;;5.91;100.00;94706.34;5078196;28;20440;-84
2023/12/30 05:33:03;;;;;;;30.08;16.00;;;;;;;6.15;100.00;94700.34;5078518;28;20035;-84
2023/12/30 05:35:28;;;;;;;26.02;13.65;;;;;;;6.20;100.00;94701.22;5079311;28;20033;-84
2023/12/30 05:37:54;;;;;;;25.58;13.32;;;;;;;6.05;100.00;94708.72;5080518;28;20036;-84
2023/12/30 05:40:19;;;;;;;29.20;13.68;;;;;;;6.03;100.00;94708.97;5098411;28;20032;-85
2023/12/30 05:42:44;;;;;;;21.60;12.65;;;;;;;6.12;100.00;94706.00;5081455;28;20047;-84
2023/12/30 05:45:10;;;;;;;20.95;11.77;;;;;;;6.23;100.00;94705.19;5099530;28;20032;-84
2023/12/30 05:47:35;;;;;;;26.67;12.43;;;;;;;6.23;100.00;94699.97;5071468;28;20040;-84
2023/12/30 05:50:01;;;;;;;21.20;11.77;;;;;;;6.28;100.00;94705.28;5077991;28;20025;-84
2023/12/30 05:52:26;;;;;;;23.58;11.98;;;;;;;6.13;100.00;94697.97;5061336;28;20020;-84
2023/12/30 05:54:52;;;;;;;20.20;10.70;;;;;;;6.39;100.00;94705.47;5082631;28;20449;-84
2023/12/30 05:57:17;;;;;;;19.00;10.43;;;;;;;6.35;100.00;94707.75;5098195;28;20024;-85
2023/12/30 05:59:43;;;;;;;19.30;9.95;;;;;;;6.33;100.00;94710.59;5091098;28;20020;-85
2023/12/30 06:02:08;;;;;;;16.27;9.60;;;;;;;6.28;100.00;94714.91;5071638;28;20054;-85
2023/12/30 06:04:34;;;;;;;17.98;9.15;;;;;;;6.52;100.00;94715.63;5065833;28;20446;-85
2023/12/30 06:06:59;;;;;;;15.05;8.50;;;;;;;6.69;100.00;94712.25;5077609;28;20044;-85
2023/12/30 06:09:25;;;;;;;15.60;8.00;;;;;;;6.74;100.00;94720.94;5061095;28;20024;-85
2023/12/30 06:11:50;;;;;;;14.45;8.35;;;;;;;6.81;100.00;94718.19;5093526;28;20439;-85
2023/12/30 06:14:15;;;;;;;15.68;8.20;;;;;;;6.93;100.00;94724.16;5098280;28;20032;-85
2023/12/30 06:16:41;;;;;;;15.02;7.45;;;;;;;7.01;100.00;94728.19;5080899;28;20038;-84
2023/12/30 06:19:07;;;;;;;16.42;8.63;;;;;;;6.97;100.00;94731.47;5080404;28;20030;-85
2023/12/30 06:21:32;;;;;;;15.00;7.28;;;;;;;7.07;100.00;94737.66;5081020;28;20065;-85
2023/12/30 06:23:57;;;;;;;11.55;6.43;;;;;;;7.13;100.00;94735.91;5097575;28;20478;-85
2023/12/30 06:26:23;;;;;;;10.52;6.00;;;;;;;7.05;100.00;94744.13;5098727;28;20132;-85
2023/12/30 06:28:49;;;;;;;11.20;5.72;;;;;;;7.15;100.00;94746.91;5076780;28;20024;-85
2023/12/30 06:31:15;;;;;;;9.13;5.13;;;;;;;7.19;100.00;94750.63;5080728;28;20030;-85
2023/12/30 06:33:40;;;;;;;9.88;5.00;;;;;;;7.17;100.00;94757.09;5097568;28;20445;-85
2023/12/30 06:36:06;;;;;;;7.97;4.38;;;;;;;7.20;100.00;94764.44;5098410;28;20032;-85
2023/12/30 06:38:32;;;;;;;8.65;4.60;;;;;;;7.26;100.00;94762.69;5087314;28;20027;-85
2023/12/30 06:40:57;;;;;;;9.38;4.57;;;;;;;7.31;100.00;94760.16;5076980;28;20028;-85
2023/12/30 06:43:23;;;;;;;8.27;4.43;;;;;;;7.33;100.00;94760.75;5077044;28;20337;-85
2023/12/30 06:45:48;;;;;;;11.68;5.03;;;;;;;7.21;100.00;94763.41;5060405;28;20017;-85
2023/12/30 06:48:16;;;;;;;8.00;4.82;;;;;;;7.22;100.00;94760.56;5087817;28;20028;-85
2023/12/30 06:50:42;;;;;;;9.13;4.43;;;;;;;7.30;100.00;94766.41;5097554;28;20433;-84
2023/12/30 06:53:07;;;;;;;9.98;5.57;;;;;;;7.24;100.00;94770.75;5095966;28;20046;-84
2023/12/30 06:55:32;;;;;;;19.48;10.50;;;;;;;7.19;100.00;94774.09;5097538;28;20083;-84
2023/12/30 06:57:58;;;;;;;20.23;10.32;;;;;;;7.04;100.00;94779.81;5085184;28;20023;-85
2023/12/30 07:00:23;;;;;;;22.75;10.82;;;;;;;6.63;100.00;94779.88;5079871;28;20338;-84
2023/12/30 07:02:49;;;;;;;24.95;12.75;;;;;;;6.54;100.00;94783.84;5096984;28;20024;-84
2023/12/30 07:05:14;;;;;;;22.88;10.95;;;;;;;6.65;100.00;94784.84;5089559;28;20020;-85
2023/12/30 07:07:39;;;;;;;19.30;9.98;;;;;;;6.57;100.00;94782.59;5097719;28;20020;-85
2023/12/30 07:10:05;;;;;;;14.18;6.97;;;;;;;6.51;100.00;94784.31;5096731;28;20024;-85
2023/12/30 07:12:31;;;;;;;18.70;9.18;;;;;;;6.87;100.00;94779.00;5079079;28;20123;-84
2023/12/30 07:14:57;;;;;;;32.72;15.27;;;;;;;6.91;100.00;94786.09;5079909;28;20024;-84
2023/12/30 07:17:23;;;;;;;30.15;14.50;;;;;;;6.92;100.00;94785.09;5096399;28;20477;-84
2023/12/30 07:19:49;;;;;;;43.10;22.20;;;;;;;6.94;100.00;94787.44;5096516;28;20036;-84
2023/12/30 07:22:15;;;;;;;53.50;26.75;;;;;;;6.99;100.00;94790.16;5079273;28;20038;-84
2023/12/30 07:24:40;;;;;;;50.42;26.73;;;;;;;6.99;100.00;94794.56;5079680;28;20062;-84
2023/12/30 07:27:06;;;;;;;56.75;28.73;;;;;;;6.62;100.00;94791.31;5096223;28;20032;-85
2023/12/30 07:29:31;;;;;;;58.90;29.55;;;;;;;6.81;100.00;94791.13;5096128;28;20062;-84
2023/12/30 07:31:57;;;;;;;57.17;26.92;;;;;;;6.84;100.00;94795.88;5087335;28;20030;-84
2023/12/30 07:34:22;;;;;;;61.58;30.42;;;;;;;6.97;100.00;94783.59;5096245;28;20065;-84
2023/12/30 07:36:48;;;;;;;59.28;28.70;;;;;;;6.91;100.00;94793.94;5079305;28;20059;-84
2023/12/30 07:39:14;;;;;;;53.53;27.00;;;;;;;7.06;100.00;94790.00;5094723;28;20028;-84
2023/12/30 07:41:40;;;;;;;47.70;24.83;;;;;;;6.99;100.00;94791.97;5065711;28;20501;-85
2023/12/30 07:44:05;;;;;;;53.50;25.98;;;;;;;7.08;100.00;94799.16;5076930;28;20116;-84
2023/12/30 07:46:31;;;;;;;55.05;26.67;;;;;;;7.18;100.00;94809.00;5075542;28;20062;-84
2023/12/30 07:48:57;;;;;;;53.00;24.80;;;;;;;6.95;100.00;94801.28;5079470;28;20111;-83
2023/12/30 07:51:23;;;;;;;51.20;24.77;;;;;;;7.26;100.00;94802.59;5097127;28;20090;-84
2023/12/30 07:53:49;;;;;;;54.28;25.92;;;;;;;7.46;100.00;94807.38;5079399;28;20384;-84
2023/12/30 07:56:16;;;;;;;50.67;25.88;;;;;;;7.62;100.00;94805.00;5095758;28;20039;-86
2023/12/30 07:58:41;;;;;;;50.08;26.40;;;;;;;7.66;100.00;94810.50;5080119;28;20067;-84
2023/12/30 08:01:07;;;;;;;55.03;25.80;;;;;;;7.67;100.00;94807.66;5059093;28;20059;-86
2023/12/30 08:03:35;;;;;;;51.45;24.77;;;;;;;7.81;100.00;94800.31;5079398;28;20038;-87
2023/12/30 08:06:00;;;;;;;38.38;18.77;;;;;;;7.94;100.00;94804.41;5095339;28;20089;-87
2023/12/30 08:08:26;;;;;;;38.90;20.08;;;;;;;8.18;100.00;94804.22;5095429;28;20433;-86
2023/12/30 08:10:51;;;;;;;37.42;19.63;;;;;;;8.49;100.00;94807.22;5096759;28;20088;-85
2023/12/30 08:13:17;;;;;;;40.72;20.58;;;;;;;8.68;100.00;94814.78;5096998;28;20358;-87
2023/12/30 08:15:42;;;;;;;39.90;20.80;;;;;;;8.75;100.00;94817.97;5093211;28;20442;-87
2023/12/30 08:18:10;;;;;;;48.90;24.95;;;;;;;8.87;100.00;94816.03;5075754;28;20060;-87
2023/12/30 08:20:36;;;;;;;52.83;28.25;;;;;;;8.98;100.00;94824.00;5075796;28;20036;-87
2023/12/30 08:23:02;;;;;;;45.85;24.40;;;;;;;8.98;100.00;94811.72;5059094;28;20033;-86
2023/12/30 08:25:27;;;;;;;51.80;26.95;;;;;;;9.19;100.00;94817.16;5075289;28;20104;-87
2023/12/30 08:27:52;;;;;;;50.60;26.48;;;;;;;9.23;100.00;94818.22;5075621;28;20315;-86
2023/12/30 08:30:18;;;;;;;55.38;27.67;;;;;;;9.27;100.00;94811.47;5075503;28;20024;-85
2023/12/30 08:32:43;;;;;;;89.68;44.70;;;;;;;9.34;100.00;94806.81;5075229;28;20108;-86
2023/12/30 08:35:10;;;;;;;55.38;28.17;;;;;;;9.51;100.00;94810.38;5076385;28;20033;-87
2023/12/30 08:37:38;;;;;;;79.13;40.15;;;;;;;9.47;100.00;94820.53;5075650;28;20029;-86
2023/12/30 08:40:10;;;;;;;59.40;31.85;;;;;;;9.47;100.00;94829.19;5075562;28;20028;-89
2023/12/30 08:42:36;;;;;;;63.15;30.25;;;;;;;9.58;100.00;94824.03;5090390;28;20028;-87
2023/12/30 08:45:04;;;;;;;51.35;27.92;;;;;;;9.55;100.00;94832.38;5078190;28;20028;-87
2023/12/30 08:47:33;;;;;;;51.42;27.85;;;;;;;9.52;100.00;94833.66;5084405;28;20028;-90
2023/12/30 08:49:58;;;;;;;39.17;20.90;;;;;;;9.58;100.00;94829.25;5085747;28;20042;-88
2023/12/30 08:52:24;;;;;;;46.80;25.75;;;;;;;9.57;100.00;94831.09;5095796;28;20036;-86
2023/12/30 08:54:50;;;;;;;43.13;23.38;;;;;;;9.56;100.00;94837.38;5078515;28;20028;-85
2023/12/30 08:57:17;;;;;;;44.95;22.90;;;;;;;9.60;100.00;94835.03;5094686;28;20194;-84
2023/12/30 08:59:43;;;;;;;48.33;24.58;;;;;;;9.60;100.00;94845.47;5094434;28;20024;-84
2023/12/30 09:02:08;;;;;;;47.25;25.80;;;;;;;9.61;100.00;94842.63;5081859;28;20089;-85
2023/12/30 09:04:34;;;;;;;53.42;27.45;;;;;;;9.83;100.00;94843.59;5087399;28;20028;-85
2023/12/30 09:06:59;;;;;;;48.13;25.95;;;;;;;9.91;100.00;94843.13;5094587;28;20039;-85
2023/12/30 09:09:27;;;;;;;50.00;25.95;;;;;;;10.12;100.00;94841.44;5094130;28;20097;-86
2023/12/30 09:11:53;;;;;;;62.78;30.83;;;;;;;10.30;100.00;94842.06;5074744;28;20396;-84
2023/12/30 09:14:19;;;;;;;94.95;46.03;;;;;;;10.43;100.00;94839.03;5060830;28;20024;-84
2023/12/30 09:16:45;;;;;;;59.88;28.77;;;;;;;10.47;100.00;94849.75;5079182;28;20024;-84
2023/12/30 09:19:10;;;;;;;52.50;27.08;;;;;;;10.52;100.00;94852.44;5095692;28;20039;-86
2023/12/30 09:21:36;;;;;;;44.97;24.60;;;;;;;10.57;100.00;94851.69;5098584;28;20122;-84
2023/12/30 09:24:01;;;;;;;50.90;27.05;;;;;;;10.59;100.00;94852.22;5081607;28;20049;-86
2023/12/30 09:26:27;;;;;;;49.33;26.55;;;;;;;10.53;100.00;94851.38;5097150;28;20409;-87
2023/12/30 09:28:52;;;;;;;47.25;24.40;;;;;;;10.42;100.00;94853.16;5078111;28;20035;-85
2023/12/30 09:31:20;;;;;;;50.55;25.02;;;;;;;10.34;100.00;94858.84;5062031;28;20041;-85
2023/12/30 09:33:49;;;;;;;54.83;28.30;;;;;;;10.23;100.00;94862.44;5078326;28;20380;-86
2023/12/30 09:36:16;;;;;;;55.13;29.35;;;;;;;10.00;100.00;94862.56;5089887;28;20070;-85
2023/12/30 09:38:42;;;;;;;58.92;28.17;;;;;;;9.98;100.00;94867.25;5098267;28;20502;-86
2023/12/30 09:41:09;;;;;;;61.88;30.38;;;;;;;9.90;100.00;94862.50;5098615;28;20028;-85
2023/12/30 09:43:35;;;;;;;60.42;31.65;;;;;;;9.70;100.00;94852.66;5098459;28;20053;-83
2023/12/30 09:46:00;;;;;;;68.28;33.22;;;;;;;9.34;100.00;94853.91;5090736;28;20032;-85
2023/12/30 09:48:26;;;;;;;65.30;33.90;;;;;;;9.43;100.00;94851.63;5094400;28;20130;-85
2023/12/30 09:50:56;;;;;;;63.47;32.60;;;;;;;9.22;100.00;94868.16;5081300;28;20028;-85
2023/12/30 09:53:22;;;;;;;65.00;33.85;;;;;;;9.16;100.00;94862.84;5098141;28;20023;-85
2023/12/30 09:55:49;;;;;;;76.13;35.20;;;;;;;9.23;100.00;94862.66;5081782;28;20082;-85
2023/12/30 09:58:15;;;;;;;73.60;37.13;;;;;;;9.08;100.00;94859.91;5075480;28;20032;-85
2023/12/30 10:00:42;;;;;;;68.95;35.53;;;;;;;8.99;100.00;94854.31;5097965;28;20034;-85
2023/12/30 10:03:09;;;;;;;66.63;33.65;;;;;;;8.89;100.00;94853.19;5089015;28;20057;-85
2023/12/30 10:05:34;;;;;;;66.55;33.08;;;;;;;8.79;100.00;94853.06;5091265;28;20025;-85
2023/12/30 10:07:59;;;;;;;64.18;33.85;;;;;;;8.82;100.00;94852.56;5077147;28;20055;-85
2023/12/30 10:10:45;;;;;;;75.45;37.67;;;;;;;8.72;100.00;94852.44;5060990;28;20021;-85
2023/12/30 10:13:22;;;;;;;73.68;36.33;;;;;;;8.54;100.00;94859.53;5085268;28;20032;-84
2023/12/30 10:15:48;;;;;;;74.80;36.20;;;;;;;8.51;100.00;94857.41;5061973;28;20449;-85
2023/12/30 10:18:15;;;;;;;78.03;38.30;;;;;;;8.60;100.00;94844.72;5098283;28;20074;-85
2023/12/30 10:20:42;;;;;;;75.63;38.55;;;;;;;8.60;100.00;94844.72;5097579;28;20024;-85
2023/12/30 10:23:07;;;;;;;80.85;38.70;;;;;;;8.67;100.00;94841.94;5096592;28;20028;-85
2023/12/30 10:25:33;;;;;;;73.82;37.83;;;;;;;8.81;100.00;94835.31;5076217;28;20077;-86
2023/12/30 10:27:59;;;;;;;73.65;38.08;;;;;;;9.13;100.00;94837.22;5077956;28;20058;-84
2023/12/30 10:30:25;;;;;;;77.07;38.58;;;;;;;9.40;100.00;94835.66;5076972;28;20430;-85
2023/12/30 10:32:50;;;;;;;79.13;38.13;;;;;;;9.64;100.00;94832.69;5077249;28;20039;-86
2023/12/30 10:35:16;;;;;;;70.35;35.67;;;;;;;9.83;100.00;94835.72;5077411;28;20035;-84
2023/12/30 10:37:44;;;;;;;69.13;35.53;;;;;;;10.00;100.00;94831.13;5060140;28;20059;-85
2023/12/30 10:40:10;;;;;;;73.47;36.42;;;;;;;10.40;100.00;94828.25;5076929;28;20025;-84
2023/12/30 10:42:40;;;;;;;62.28;32.05;;;;;;;10.71;100.00;94817.91;5094300;28;20115;-85
2023/12/30 10:45:06;;;;;;;70.22;32.88;;;;;;;10.88;100.00;94826.34;5097197;28;20430;-84
2023/12/30 10:47:36;;;;;;;64.55;32.50;;;;;;;10.88;100.00;94820.34;5098328;28;20058;-86
2023/12/30 10:50:04;;;;;;;66.30;33.55;;;;;;;10.74;100.00;94817.41;5096900;28;20020;-85
2023/12/30 10:52:32;;;;;;;98.75;47.08;;;;;;;10.51;100.00;94819.41;5097103;28;20314;-86
2023/12/30 10:55:18;;;;;;;139.38;66.28;;;;;;;10.41;100.00;94820.16;5080446;28;20023;-90
2023/12/30 10:57:53;;;;;;;102.32;49.90;;;;;;;10.35;100.00;94813.28;5087716;28;20036;-86
2023/12/30 11:00:20;;;;;;;74.60;36.47;;;;;;;10.56;100.00;94811.56;5083848;28;20468;-86
2023/12/30 11:02:47;;;;;;;60.80;29.65;;;;;;;10.40;100.00;94812.53;5076581;28;20521;-85
2023/12/30 11:05:18;;;;;;;180.15;82.75;;;;;;;10.22;100.00;94811.91;5064137;28;20035;-86
2023/12/30 11:07:47;;;;;;;97.07;46.70;;;;;;;10.23;100.00;94808.25;5097591;28;20044;-86
2023/12/30 11:10:17;;;;;;;99.50;47.88;;;;;;;10.10;100.00;94809.47;5080048;28;20270;-86